createdAt,value
2019-04-07T00:01:19.403Z,60.36
2019-04-07T00:03:46.062Z,60.23
2019-04-07T00:06:12.712Z,59.87
2019-04-07T00:08:39.588Z,59.94
2019-04-07T00:11:06.417Z,59.94
2019-04-07T00:13:32.998Z,60.37
2019-04-07T00:16:00.304Z,60.70
2019-04-07T00:18:28.239Z,60.62
2019-04-07T00:20:55.227Z,60.74
2019-04-07T00:23:21.817Z,60.93
2019-04-07T00:25:48.684Z,61.06
2019-04-07T00:28:15.267Z,60.77
2019-04-07T00:30:42.529Z,60.64
2019-04-07T00:33:09.282Z,60.90
2019-04-07T00:35:36.531Z,61.26
2019-04-07T00:38:09.582Z,61.28
2019-04-07T00:40:37.086Z,61.45
2019-04-07T00:43:04.516Z,61.55
2019-04-07T00:45:31.621Z,61.56
2019-04-07T00:47:59.632Z,61.81
2019-04-07T00:50:26.522Z,61.65
2019-04-07T00:52:53.171Z,61.07
2019-04-07T00:55:21.014Z,60.63
2019-04-07T00:57:48.242Z,60.71
2019-04-07T01:00:16.603Z,60.80
2019-04-07T01:02:44.078Z,60.53
2019-04-07T01:05:10.648Z,60.36
2019-04-07T01:07:37.241Z,60.20
2019-04-07T01:10:05.044Z,60.35
2019-04-07T01:12:31.942Z,60.11
2019-04-07T01:14:58.759Z,59.97
2019-04-07T01:17:26.945Z,59.81
2019-04-07T01:19:53.743Z,59.91
2019-04-07T01:22:20.816Z,59.80
2019-04-07T01:24:49.470Z,59.59
2019-04-07T01:27:16.096Z,59.69
2019-04-07T01:29:43.200Z,59.94
2019-04-07T01:32:10.246Z,60.07
2019-04-07T01:34:36.942Z,59.92
2019-04-07T01:37:03.630Z,59.78
2019-04-07T01:39:31.509Z,59.72
2019-04-07T01:41:58.983Z,59.70
2019-04-07T01:44:25.699Z,60.15
2019-04-07T01:46:52.486Z,60.27
2019-04-07T01:49:19.482Z,60.21
2019-04-07T01:51:46.504Z,60.19
2019-04-07T01:54:13.514Z,60.41
2019-04-07T01:56:40.268Z,60.15
2019-04-07T01:59:10.539Z,60.47
2019-04-07T02:01:36.465Z,61.05
2019-04-07T02:04:03.942Z,60.75
2019-04-07T02:06:31.142Z,60.80
2019-04-07T02:08:58.302Z,61.46
2019-04-07T02:11:25.150Z,61.72
2019-04-07T02:13:51.761Z,61.89
2019-04-07T02:16:19.182Z,61.30
2019-04-07T02:18:46.571Z,61.24
2019-04-07T02:21:13.332Z,60.85
2019-04-07T02:23:41.475Z,60.86
2019-04-07T02:26:08.769Z,60.55
2019-04-07T02:28:35.829Z,60.37
2019-04-07T02:31:02.670Z,60.58
2019-04-07T02:33:29.485Z,60.48
2019-04-07T02:36:12.080Z,60.78
2019-04-07T02:38:27.872Z,60.84
2019-04-07T02:40:55.715Z,60.60
2019-04-07T02:46:06.775Z,60.73
2019-04-07T02:48:33.894Z,60.38
2019-04-07T02:51:01.277Z,60.17
2019-04-07T02:53:28.827Z,60.36
2019-04-07T02:55:55.483Z,60.11
2019-04-07T02:58:22.821Z,60.58
2019-04-07T03:00:50.735Z,60.39
2019-04-07T03:03:18.688Z,60.64
2019-04-07T03:05:45.639Z,60.79
2019-04-07T03:08:12.290Z,60.75
2019-04-07T03:10:38.970Z,60.42
2019-04-07T03:13:06.212Z,60.12
2019-04-07T03:15:34.324Z,60.27
2019-04-07T03:18:01.083Z,60.80
2019-04-07T03:20:28.128Z,60.92
2019-04-07T03:22:55.903Z,61.28
2019-04-07T03:28:08.757Z,61.47
2019-04-07T03:30:38.150Z,62.00
2019-04-07T03:33:07.849Z,62.49
2019-04-07T03:35:34.803Z,62.60
2019-04-07T03:38:02.031Z,62.51
2019-04-07T03:40:28.686Z,62.31
2019-04-07T03:42:55.630Z,62.39
2019-04-07T03:45:22.518Z,62.37
2019-04-07T03:47:49.129Z,62.75
2019-04-07T03:50:16.587Z,62.70
2019-04-07T03:52:43.245Z,62.75
2019-04-07T03:55:10.116Z,62.92
2019-04-07T03:57:37.181Z,63.16
2019-04-07T04:00:04.215Z,63.24
2019-04-07T04:02:31.563Z,62.78
2019-04-07T04:04:58.493Z,62.41
2019-04-07T04:07:31.594Z,62.87
2019-04-07T04:09:53.791Z,63.26
2019-04-07T04:12:21.257Z,63.57
2019-04-07T04:14:48.732Z,63.95
2019-04-07T04:17:16.455Z,64.36
2019-04-07T04:19:43.994Z,64.43
2019-04-07T04:22:11.617Z,64.13
2019-04-07T04:24:38.280Z,63.53
2019-04-07T04:27:04.924Z,63.85
2019-04-07T04:29:31.821Z,64.51
2019-04-07T04:31:59.640Z,65.03
2019-04-07T04:34:27.135Z,65.52
2019-04-07T04:36:54.523Z,65.28
2019-04-07T04:39:21.487Z,64.98
2019-04-07T04:41:49.016Z,64.38
2019-04-07T04:44:18.449Z,63.79
2019-04-07T04:46:45.355Z,63.39
2019-04-07T04:49:12.019Z,63.79
2019-04-07T04:51:39.939Z,63.90
2019-04-07T04:54:08.313Z,64.40
2019-04-07T04:56:35.944Z,64.99
2019-04-07T04:59:02.727Z,65.10
2019-04-07T05:01:29.412Z,65.01
2019-04-07T05:03:56.020Z,64.64
2019-04-07T05:06:22.928Z,64.61
2019-04-07T05:08:49.972Z,64.78
2019-04-07T05:11:16.743Z,64.45
2019-04-07T05:13:44.621Z,64.35
2019-04-07T05:16:11.847Z,64.75
2019-04-07T05:18:38.715Z,64.68
2019-04-07T05:21:05.556Z,64.63
2019-04-07T05:26:18.965Z,64.59
2019-04-07T05:28:45.944Z,64.23
2019-04-07T05:31:13.286Z,63.89
2019-04-07T05:33:40.005Z,63.30
2019-04-07T05:36:06.975Z,63.34
2019-04-07T05:38:34.430Z,63.32
2019-04-07T05:41:01.694Z,63.04
2019-04-07T05:43:28.438Z,62.92
2019-04-07T05:45:55.492Z,63.18
2019-04-07T05:48:22.748Z,62.90
2019-04-07T05:50:49.337Z,62.93
2019-04-07T05:53:15.947Z,63.54
2019-04-07T05:55:42.818Z,63.45
2019-04-07T05:58:09.418Z,63.44
2019-04-07T06:00:36.230Z,63.25
2019-04-07T06:03:06.523Z,63.13
2019-04-07T06:05:31.127Z,62.63
2019-04-07T06:08:00.861Z,62.13
2019-04-07T06:10:28.689Z,62.21
2019-04-07T06:12:55.390Z,61.99
2019-04-07T06:15:23.388Z,62.12
2019-04-07T06:17:50.165Z,61.70
2019-04-07T06:20:18.896Z,61.67
2019-04-07T06:22:46.988Z,61.14
2019-04-07T06:25:14.167Z,61.46
2019-04-07T06:27:44.916Z,61.03
2019-04-07T06:30:09.786Z,60.15
2019-04-07T06:32:38.405Z,59.66
2019-04-07T06:35:05.092Z,59.63
2019-04-07T06:37:31.838Z,58.77
2019-04-07T06:40:01.083Z,58.50
2019-04-07T06:42:31.559Z,58.52
2019-04-07T06:44:56.684Z,58.89
2019-04-07T06:47:25.007Z,58.31
2019-04-07T06:49:52.072Z,58.96
2019-04-07T06:52:19.285Z,58.83
2019-04-07T06:54:52.024Z,58.24
2019-04-07T06:57:15.965Z,58.57
2019-04-07T06:59:45.640Z,58.71
2019-04-07T07:02:12.092Z,57.86
2019-04-07T07:04:41.587Z,58.19
2019-04-07T07:07:07.400Z,57.64
2019-04-07T07:09:34.025Z,57.70
2019-04-07T07:12:00.702Z,57.13
2019-04-07T07:14:38.034Z,56.58
2019-04-07T07:16:56.561Z,55.72
2019-04-07T07:19:26.341Z,55.78
2019-04-07T07:21:52.262Z,55.44
2019-04-07T07:24:25.405Z,54.88
2019-04-07T07:26:56.999Z,54.02
2019-04-07T07:29:22.359Z,54.14
2019-04-07T07:31:53.064Z,54.16
2019-04-07T07:34:30.454Z,53.34
2019-04-07T07:37:13.318Z,51.96
2019-04-07T07:39:57.976Z,52.72
2019-04-07T07:42:25.730Z,53.02
2019-04-07T07:44:53.569Z,52.35
2019-04-07T07:47:23.023Z,51.58
2019-04-07T07:50:08.956Z,51.96
2019-04-07T07:52:39.868Z,51.11
2019-04-07T07:55:13.104Z,52.16
2019-04-07T08:00:28.289Z,51.75
2019-04-07T08:02:56.144Z,51.69
2019-04-07T08:05:31.715Z,50.72
2019-04-07T08:08:02.407Z,51.02
2019-04-07T08:10:34.268Z,51.44
2019-04-07T08:13:07.868Z,49.25
2019-04-07T08:15:34.781Z,48.95
2019-04-07T08:18:07.041Z,48.87
2019-04-07T08:23:22.015Z,49.38
2019-04-07T08:25:52.905Z,48.52
2019-04-07T08:28:24.461Z,49.09
2019-04-07T08:30:56.419Z,48.06
2019-04-07T08:33:24.794Z,48.52
2019-04-07T08:35:54.874Z,47.48
2019-04-07T08:38:25.311Z,46.78
2019-04-07T08:41:10.173Z,47.81
2019-04-07T08:43:39.839Z,46.75
2019-04-07T08:46:11.109Z,46.70
2019-04-07T08:48:38.949Z,47.04
2019-04-07T08:51:11.266Z,45.64
2019-04-07T08:53:43.564Z,45.77
2019-04-07T08:56:13.176Z,46.57
2019-04-07T08:58:42.862Z,46.01
2019-04-07T09:01:10.524Z,46.48
2019-04-07T09:03:37.200Z,44.65
2019-04-07T09:06:04.565Z,43.17
2019-04-07T09:08:34.641Z,44.21
2019-04-07T09:11:06.056Z,44.67
2019-04-07T09:13:34.223Z,44.26
2019-04-07T09:16:01.159Z,43.98
2019-04-07T09:18:27.759Z,43.85
2019-04-07T09:23:40.416Z,41.99
2019-04-07T09:26:01.563Z,43.17
2019-04-07T09:28:28.521Z,42.40
2019-04-07T09:30:56.340Z,42.36
2019-04-07T09:33:27.603Z,42.33
2019-04-07T09:38:40.917Z,42.59
2019-04-07T09:41:09.480Z,42.87
2019-04-07T09:46:24.207Z,42.35
2019-04-07T09:48:52.825Z,43.76
2019-04-07T09:51:22.772Z,44.10
2019-04-07T09:53:52.398Z,43.95
2019-04-07T09:56:20.050Z,43.22
2019-04-07T09:58:47.653Z,42.14
2019-04-07T10:01:18.954Z,41.90
2019-04-07T10:03:42.765Z,41.32
2019-04-07T10:06:10.617Z,42.21
2019-04-07T10:08:40.841Z,42.92
2019-04-07T10:11:08.510Z,42.00
2019-04-07T10:13:49.664Z,41.74
2019-04-07T10:16:11.910Z,40.79
2019-04-07T10:18:40.101Z,41.22
2019-04-07T10:21:14.293Z,40.36
2019-04-07T10:23:40.695Z,40.66
2019-04-07T10:26:09.618Z,41.61
2019-04-07T10:28:40.901Z,40.48
2019-04-07T10:31:09.256Z,41.16
2019-04-07T10:33:37.813Z,39.43
2019-04-07T10:36:09.337Z,38.18
2019-04-07T10:38:41.427Z,38.65
2019-04-07T10:41:10.721Z,37.74
2019-04-07T10:46:28.344Z,39.12
2019-04-07T10:48:57.837Z,38.58
2019-04-07T10:51:34.378Z,38.39
2019-04-07T10:54:03.779Z,38.83
2019-04-07T10:56:30.849Z,38.85
2019-04-07T10:58:59.687Z,39.35
2019-04-07T11:01:33.632Z,39.77
2019-04-07T11:04:00.389Z,38.89
2019-04-07T11:06:27.321Z,37.68
2019-04-07T11:08:56.811Z,37.15
2019-04-07T11:11:28.597Z,37.92
2019-04-07T11:13:56.980Z,37.86
2019-04-07T11:16:27.254Z,37.71
2019-04-07T11:18:58.539Z,37.73
2019-04-07T11:21:34.950Z,38.30
2019-04-07T11:26:48.558Z,38.38
2019-04-07T11:29:26.285Z,36.44
2019-04-07T11:31:55.386Z,34.83
2019-04-07T11:34:28.222Z,36.56
2019-04-07T11:36:57.104Z,33.89
2019-04-07T11:39:33.711Z,36.08
2019-04-07T11:44:57.512Z,35.72
2019-04-07T11:47:26.538Z,36.18
2019-04-07T11:49:53.934Z,35.63
2019-04-07T11:52:21.042Z,35.72
2019-04-07T11:54:51.160Z,35.34
2019-04-07T11:58:03.645Z,34.89
2019-04-07T11:59:57.588Z,34.64
2019-04-07T12:02:28.853Z,36.85
2019-04-07T12:04:58.972Z,36.81
2019-04-07T12:07:31.131Z,36.99
2019-04-07T12:10:03.017Z,35.31
2019-04-07T12:12:31.125Z,34.23
2019-04-07T12:14:58.890Z,33.99
2019-04-07T12:17:25.655Z,34.19
2019-04-07T12:19:55.987Z,33.65
2019-04-07T12:22:23.698Z,32.26
2019-04-07T12:24:52.131Z,31.59
2019-04-07T12:27:21.605Z,31.07
2019-04-07T12:29:49.507Z,31.46
2019-04-07T12:32:17.058Z,31.48
2019-04-07T12:34:46.392Z,32.11
2019-04-07T12:37:12.899Z,31.70
2019-04-07T12:39:40.715Z,30.72
2019-04-07T12:42:08.480Z,31.16
2019-04-07T12:44:36.453Z,31.18
2019-04-07T12:47:03.275Z,32.22
2019-04-07T12:49:30.141Z,33.13
2019-04-07T12:51:57.108Z,32.24
2019-04-07T12:54:24.410Z,31.36
2019-04-07T12:56:51.288Z,31.80
2019-04-07T12:59:19.126Z,31.66
2019-04-07T13:01:48.481Z,30.66
2019-04-07T13:04:15.473Z,32.16
2019-04-07T13:06:45.222Z,33.33
2019-04-07T13:09:11.460Z,32.21
2019-04-07T13:11:42.748Z,32.20
2019-04-07T13:14:09.561Z,33.35
2019-04-07T13:16:35.960Z,33.34
2019-04-07T13:19:04.119Z,34.15
2019-04-07T13:21:32.208Z,32.74
2019-04-07T13:23:59.380Z,33.62
2019-04-07T13:26:30.255Z,33.63
2019-04-07T13:28:54.974Z,33.67
2019-04-07T13:31:21.848Z,34.01
2019-04-07T13:33:48.732Z,34.57
2019-04-07T13:36:16.010Z,34.61
2019-04-07T13:38:43.183Z,34.47
2019-04-07T13:41:10.469Z,34.99
2019-04-07T13:43:38.096Z,36.15
2019-04-07T13:46:04.736Z,34.77
2019-04-07T13:48:34.397Z,35.14
2019-04-07T13:51:01.075Z,35.27
2019-04-07T13:53:30.523Z,35.61
2019-04-07T13:55:57.247Z,36.15
2019-04-07T13:58:25.030Z,36.09
2019-04-07T14:00:52.972Z,36.23
2019-04-07T14:03:23.372Z,36.65
2019-04-07T14:05:49.096Z,36.63
2019-04-07T14:08:16.366Z,37.15
2019-04-07T14:10:43.939Z,37.91
2019-04-07T14:13:10.828Z,36.26
2019-04-07T14:15:37.634Z,37.14
2019-04-07T14:18:04.794Z,37.15
2019-04-07T14:20:31.808Z,38.07
2019-04-07T14:22:59.152Z,38.07
2019-04-07T14:25:26.779Z,38.52
2019-04-07T14:27:53.724Z,37.86
2019-04-07T14:30:21.298Z,38.39
2019-04-07T14:32:50.742Z,37.81
2019-04-07T14:35:19.419Z,38.46
2019-04-07T14:37:46.294Z,39.23
2019-04-07T14:40:13.285Z,39.93
2019-04-07T14:42:40.662Z,39.31
2019-04-07T14:45:07.807Z,39.53
2019-04-07T14:47:34.966Z,40.18
2019-04-07T14:50:02.035Z,40.63
2019-04-07T14:52:31.871Z,40.55
2019-04-07T14:54:59.911Z,39.95
2019-04-07T14:57:26.914Z,39.46
2019-04-07T14:59:54.534Z,39.64
2019-04-07T15:02:22.765Z,39.56
2019-04-07T15:04:50.946Z,40.31
2019-04-07T15:07:22.145Z,39.86
2019-04-07T15:09:50.009Z,39.31
2019-04-07T15:12:23.896Z,40.63
2019-04-07T15:14:48.041Z,41.01
2019-04-07T15:17:16.600Z,40.61
2019-04-07T15:19:44.212Z,40.70
2019-04-07T15:22:12.160Z,40.00
2019-04-07T15:24:39.582Z,40.49
2019-04-07T15:27:07.893Z,40.36
2019-04-07T15:29:39.418Z,39.96
2019-04-07T15:32:06.001Z,39.86
2019-04-07T15:34:33.265Z,40.23
2019-04-07T15:37:00.856Z,40.98
2019-04-07T15:39:28.912Z,40.46
2019-04-07T15:41:56.656Z,40.49
2019-04-07T15:44:23.473Z,40.48
2019-04-07T15:46:53.273Z,40.79
2019-04-07T15:49:20.475Z,40.75
2019-04-07T15:51:48.780Z,40.73
2019-04-07T15:54:22.322Z,41.67
2019-04-07T15:56:49.290Z,40.91
2019-04-07T15:59:17.639Z,41.27
2019-04-07T16:01:44.137Z,41.49
2019-04-07T16:04:11.767Z,41.56
2019-04-07T16:06:39.762Z,42.27
2019-04-07T16:09:11.799Z,42.08
2019-04-07T16:11:35.814Z,42.01
2019-04-07T16:14:08.692Z,42.78
2019-04-07T16:16:33.244Z,42.66
2019-04-07T16:19:00.159Z,42.52
2019-04-07T16:21:29.690Z,42.38
2019-04-07T16:23:56.063Z,40.91
2019-04-07T16:26:24.755Z,39.59
2019-04-07T16:28:51.994Z,39.36
2019-04-07T16:31:19.789Z,39.65
2019-04-07T16:33:47.522Z,40.00
2019-04-07T16:36:15.414Z,40.51
2019-04-07T16:38:44.083Z,42.28
2019-04-07T16:41:13.770Z,42.89
2019-04-07T16:43:41.991Z,44.14
2019-04-07T16:46:12.247Z,44.93
2019-04-07T16:48:40.246Z,46.29
2019-04-07T16:51:07.934Z,46.73
2019-04-07T16:53:37.928Z,48.20
2019-04-07T16:56:04.124Z,48.00
2019-04-07T16:58:35.319Z,48.65
2019-04-07T17:01:01.239Z,49.45
2019-04-07T17:03:29.579Z,50.11
2019-04-07T17:05:59.344Z,50.33
2019-04-07T17:11:13.993Z,51.66
2019-04-07T17:13:42.647Z,51.62
2019-04-07T17:16:11.851Z,52.12
2019-04-07T17:18:41.114Z,51.69
2019-04-07T17:21:09.487Z,51.75
2019-04-07T17:23:38.625Z,53.12
2019-04-07T17:26:14.449Z,53.09
2019-04-07T17:28:57.974Z,52.88
2019-04-07T17:31:27.084Z,53.63
2019-04-07T17:33:58.628Z,53.44
2019-04-07T17:36:25.309Z,53.46
2019-04-07T17:38:55.180Z,53.21
2019-04-07T17:41:25.846Z,53.15
2019-04-07T17:43:58.414Z,53.29
2019-04-07T17:46:30.628Z,53.54
2019-04-07T17:48:57.185Z,53.35
2019-04-07T17:51:26.134Z,53.73
2019-04-07T17:53:53.950Z,53.80
2019-04-07T17:56:43.144Z,54.00
2019-04-07T17:59:04.443Z,54.20
2019-04-07T18:01:44.523Z,54.19
2019-04-07T18:04:03.701Z,54.36
2019-04-07T18:06:40.639Z,54.85
2019-04-07T18:09:07.942Z,55.03
2019-04-07T18:14:10.391Z,55.11
2019-04-07T18:16:40.737Z,54.97
2019-04-07T18:19:15.561Z,55.02
2019-04-07T18:21:51.517Z,54.98
2019-04-07T18:24:18.075Z,54.86
2019-04-07T18:26:48.133Z,55.51
2019-04-07T18:29:29.406Z,55.33
2019-04-07T18:32:02.822Z,55.47
2019-04-07T18:34:31.452Z,54.94
2019-04-07T18:36:59.938Z,54.97
2019-04-07T18:39:27.483Z,55.46
2019-04-07T18:41:56.094Z,55.51
2019-04-07T18:44:42.827Z,54.93
2019-04-07T18:50:04.063Z,55.06
2019-04-07T18:52:30.567Z,55.47
2019-04-07T18:55:05.757Z,55.94
2019-04-07T18:57:32.480Z,56.03
2019-04-07T19:00:04.145Z,55.45
2019-04-07T19:02:30.103Z,55.07
2019-04-07T19:05:00.198Z,55.07
2019-04-07T19:07:29.216Z,55.39
2019-04-07T19:10:06.463Z,55.54
2019-04-07T19:12:29.990Z,55.88
2019-04-07T19:15:08.044Z,55.75
2019-04-07T19:17:33.640Z,55.45
2019-04-07T19:19:59.862Z,55.50
2019-04-07T19:22:31.419Z,55.64
2019-04-07T19:27:43.544Z,55.96
2019-04-07T19:30:13.100Z,56.01
2019-04-07T19:32:38.882Z,55.84
2019-04-07T19:35:05.861Z,56.04
2019-04-07T19:37:32.775Z,55.76
2019-04-07T19:40:01.557Z,55.76
2019-04-07T19:42:28.525Z,56.17
2019-04-07T19:44:55.506Z,56.83
2019-04-07T19:47:22.700Z,57.10
2019-04-07T19:49:50.518Z,56.89
2019-04-07T19:52:17.798Z,56.70
2019-04-07T19:54:49.457Z,56.85
2019-04-07T19:57:14.247Z,56.12
2019-04-07T19:59:42.896Z,56.06
2019-04-07T20:02:09.672Z,56.14
2019-04-07T20:04:37.179Z,55.74
2019-04-07T20:07:04.878Z,55.15
2019-04-07T20:09:32.119Z,55.57
2019-04-07T20:12:02.215Z,55.17
2019-04-07T20:14:28.451Z,55.24
2019-04-07T20:16:55.612Z,55.14
2019-04-07T20:19:22.424Z,55.26
2019-04-07T20:21:54.704Z,54.95
2019-04-07T20:24:17.744Z,54.64
2019-04-07T20:26:44.968Z,53.90
2019-04-07T20:29:11.991Z,53.62
2019-04-07T20:31:38.733Z,53.68
2019-04-07T20:34:06.120Z,53.48
2019-04-07T20:36:33.786Z,53.64
2019-04-07T20:39:00.723Z,53.66
2019-04-07T20:41:28.149Z,53.29
2019-04-07T20:43:55.764Z,53.92
2019-04-07T20:46:23.881Z,54.23
2019-04-07T20:48:50.676Z,54.56
2019-04-07T20:51:17.914Z,53.92
2019-04-07T20:53:45.157Z,54.33
2019-04-07T20:56:13.001Z,54.32
2019-04-07T20:58:46.403Z,54.73
2019-04-07T21:01:11.308Z,55.20
2019-04-07T21:03:36.559Z,55.32
2019-04-07T21:06:06.412Z,55.63
2019-04-07T21:08:34.278Z,55.63
2019-04-07T21:11:01.556Z,55.49
2019-04-07T21:13:28.946Z,55.51
2019-04-07T21:15:55.554Z,55.51
2019-04-07T21:18:23.655Z,55.50
2019-04-07T21:20:50.902Z,55.31
2019-04-07T21:23:19.481Z,54.75
2019-04-07T21:25:47.890Z,54.67
2019-04-07T21:28:14.516Z,54.88
2019-04-07T21:33:31.373Z,54.72
2019-04-07T21:36:13.001Z,55.16
2019-04-07T21:38:41.587Z,55.32
2019-04-07T21:41:19.342Z,55.18
2019-04-07T21:43:47.090Z,54.98
2019-04-07T21:46:22.415Z,54.99
2019-04-07T21:48:48.703Z,54.76
2019-04-07T21:51:19.776Z,54.67
2019-04-07T21:53:50.408Z,54.76
2019-04-07T21:56:22.211Z,54.89
2019-04-07T21:58:48.633Z,55.07
2019-04-07T22:01:19.944Z,55.18
2019-04-07T22:03:49.319Z,55.83
2019-04-07T22:06:17.733Z,55.94
2019-04-07T22:08:46.687Z,56.18
2019-04-07T22:11:13.269Z,56.46
2019-04-07T22:13:40.748Z,56.59
2019-04-07T22:16:07.997Z,56.54
2019-04-07T22:18:37.518Z,56.51
2019-04-07T22:21:03.406Z,56.66
2019-04-07T22:23:31.803Z,56.56
2019-04-07T22:26:12.638Z,56.49
2019-04-07T22:28:36.144Z,56.57
2019-04-07T22:31:03.625Z,56.32
2019-04-07T22:33:32.428Z,56.23
2019-04-07T22:35:59.618Z,56.11
2019-04-07T22:38:27.350Z,55.87
2019-04-07T22:40:54.609Z,56.10
2019-04-07T22:43:21.299Z,56.09
2019-04-07T22:45:55.771Z,56.29
2019-04-07T22:48:16.498Z,56.20
2019-04-07T22:50:43.461Z,56.05
2019-04-07T22:55:58.966Z,56.50
2019-04-07T22:58:25.839Z,56.49
2019-04-07T23:00:52.417Z,56.25
2019-04-07T23:03:19.658Z,56.53
2019-04-07T23:05:47.063Z,56.70
2019-04-07T23:08:14.545Z,56.75
2019-04-07T23:10:42.215Z,56.80
2019-04-07T23:13:13.288Z,56.84
2019-04-07T23:15:45.631Z,57.07
2019-04-07T23:18:13.770Z,57.22
2019-04-07T23:20:44.462Z,57.66
2019-04-07T23:23:15.390Z,57.83
2019-04-07T23:28:30.672Z,57.17
2019-04-07T23:30:59.035Z,57.33
2019-04-07T23:33:27.641Z,57.52
2019-04-07T23:35:57.514Z,57.69
2019-04-07T23:38:30.446Z,57.61
2019-04-07T23:41:03.293Z,58.15
2019-04-07T23:43:39.996Z,58.58
2019-04-07T23:46:05.126Z,58.67
2019-04-07T23:48:36.185Z,58.42
2019-04-07T23:51:09.032Z,59.00
2019-04-07T23:53:36.481Z,59.34
2019-04-07T23:56:10.044Z,58.95
